MDT,Max TemperatureF,Mean TemperatureF,Min TemperatureF,Max Dew PointF,MeanDew PointF,Min DewpointF,Max Humidity, Mean Humidity, Min Humidity, Max Sea Level PressureIn, Mean Sea Level PressureIn, Min Sea Level PressureIn, Max VisibilityMiles, Mean VisibilityMiles, Min VisibilityMiles, Max Wind SpeedMPH, Mean Wind SpeedMPH, Max Gust SpeedMPH,PrecipitationIn, CloudCover, Events, WindDirDegrees
2013-6-1,79,55,30,21,14,10,40,24,7,30.06,29.99,29.93,10,10,10,18,6,26,0.00,0,,279
2013-6-2,84,59,34,32,24,18,48,29,10,30.04,29.92,29.75,10,10,10,20,5,24,0.00,0,,102
2013-6-3,82,62,41,36,30,24,58,36,13,29.87,29.82,29.78,10,10,10,35,8,49,T,0,,349
2013-6-4,86,63,40,34,27,21,57,34,10,29.91,29.85,29.79,10,10,10,21,6,28,0.00,0,,288
2013-6-5,83,64,44,31,25,18,46,28,10,29.89,29.83,29.78,10,10,10,25,6,31,0.00,0,,343
2013-6-6,86,65,43,34,26,22,45,28,10,30.04,29.87,29.79,10,10,10,23,6,33,0.00,0,Thunderstorm,96
2013-6-7,83,62,41,39,30,23,60,36,12,29.96,29.85,29.73,10,10,10,22,6,29,0.00,0,,11
2013-6-8,90,66,42,37,30,25,58,34,10,29.83,29.76,29.70,10,10,10,26,9,36,0.00,0,,322
2013-6-9,92,69,46,35,28,23,45,27,9,30.07,29.84,29.78,10,10,10,24,7,30,0.00,0,,253
2013-6-10,94,69,44,33,27,19,53,31,8,30.13,29.86,29.76,10,10,10,24,6,32,0.00,0,,245
2013-6-11,89,67,45,31,23,17,45,26,7,29.95,29.91,29.86,10,10,10,28,9,36,0.00,0,,312
2013-6-12,89,67,44,33,23,16,42,25,7,30.03,29.98,29.94,10,10,10,22,5,30,0.00,0,,345
2013-6-13,91,68,45,36,28,23,46,28,10,30.20,29.94,29.86,10,10,10,25,6,33,T,1,,275
2013-6-14,87,70,53,40,31,21,59,34,9,29.93,29.84,29.77,10,10,7,26,7,33,0.00,0,,314
2013-6-15,85,64,42,45,31,23,59,36,12,30.25,29.98,29.83,10,10,7,38,7,54,T,1,Rain-Thunderstorm,305
2013-6-16,85,64,43,39,35,29,65,39,13,30.10,30.00,29.91,10,10,10,22,6,30,0.00,1,,275
2013-6-17,86,66,46,37,30,20,61,37,12,29.99,29.92,29.82,10,10,10,22,6,30,0.00,0,,267
2013-6-18,87,65,42,43,26,10,49,28,6,30.12,29.89,29.75,10,10,10,22,8,29,0.00,0,,266
2013-6-19,88,63,38,27,15,6,40,23,5,30.02,29.80,29.69,10,10,10,25,8,33,0.00,0,,246
2013-6-20,86,63,39,23,16,12,37,22,7,29.89,29.83,29.75,10,10,10,21,7,32,0.00,0,,294
2013-6-21,85,62,38,25,21,17,41,26,10,29.94,29.88,29.78,10,10,10,21,6,28,0.00,0,,306
2013-6-22,85,63,41,26,20,14,41,24,7,29.91,29.84,29.77,10,10,10,28,7,36,0.00,0,,300
2013-6-23,86,63,40,26,19,10,41,24,6,29.87,29.81,29.72,10,10,10,24,6,35,0.00,0,,12
2013-6-24,83,64,45,24,18,12,39,24,8,29.90,29.83,29.77,10,10,10,24,7,32,0.00,0,,236
2013-6-25,85,64,42,31,26,19,37,26,14,29.96,29.92,29.87,10,10,10,23,10,32,0.00,0,,284
2013-6-26,92,69,45,35,31,27,50,31,11,30.03,29.97,29.92,10,10,10,17,6,24,0.00,0,,258
2013-6-27,96,72,48,36,31,21,48,28,7,30.05,30.01,29.96,10,10,10,23,4,29,0.00,0,,39
2013-6-28,95,75,54,41,37,32,47,29,11,30.42,30.13,29.95,10,7,2,25,7,32,0.00,2,,41
2013-6-29,89,71,52,52,43,38,60,39,18,30.28,30.09,29.96,10,9,4,29,5,37,0.02,2,Rain-Thunderstorm,38
2013-6-30,90,71,51,48,43,34,72,46,20,30.20,30.02,29.85,10,10,10,22,7,29,T,1,Rain-Thunderstorm,306